Aviation Digital Data Service (ADDS)

Output produced by METARs form (0432 UTC 22 September 2017)
found at http://www.aviationweather.gov/adds/metars/
 
TAF MZBZ 220300Z 2206/2306 08006KT 9999 SCT022
       
TAF MZBZ 220300Z 2206/2306 08006KT 9999 SCT022